Time;durP1;ratioP1;P1;durP2;ratioP2;P2;SDS_P1;SDS_P2;PMS_P1;PMS_P2;Temp;Humidity;BMP_temperature;BMP_pressure;BME280_temperature;BME280_humidity;BME280_pressure;Samples;Min_cycle;Max_cycle;Signal;HPM_P1;HPM_P2
2023/11/18 00:02:22;;;;;;;10.02;8.30;;;;;;;6.13;100.00;102309.28;4999031;28;20037;-87
2023/11/18 00:04:47;;;;;;;9.82;8.85;;;;;;;6.10;100.00;102310.16;5016479;28;20033;-87
2023/11/18 00:07:12;;;;;;;9.95;8.95;;;;;;;6.09;100.00;102308.47;5016461;28;20427;-87
2023/11/18 00:09:38;;;;;;;9.98;8.73;;;;;;;6.04;100.00;102304.97;5015670;28;20403;-87
2023/11/18 00:12:04;;;;;;;10.55;8.55;;;;;;;6.02;100.00;102304.09;5016528;28;20046;-87
2023/11/18 00:14:31;;;;;;;10.07;8.50;;;;;;;6.02;100.00;102305.81;5015568;28;20057;-87
2023/11/18 00:16:58;;;;;;;12.43;9.52;;;;;;;5.99;100.00;102303.22;4998544;28;20038;-87
2023/11/18 00:19:24;;;;;;;11.70;8.93;;;;;;;5.96;100.00;102298.88;5016353;28;20033;-87
2023/11/18 00:21:49;;;;;;;10.27;9.02;;;;;;;5.95;100.00;102297.13;4983746;28;20332;-87
2023/11/18 00:24:15;;;;;;;11.00;8.90;;;;;;;5.94;100.00;102298.84;4979481;28;20026;-87
2023/11/18 00:26:40;;;;;;;11.98;9.45;;;;;;;5.93;100.00;102304.91;4996603;28;20102;-87
2023/11/18 00:29:05;;;;;;;9.70;8.80;;;;;;;5.92;100.00;102299.72;4997175;28;20348;-87
2023/11/18 00:31:31;;;;;;;12.13;8.93;;;;;;;5.90;100.00;102306.66;4979130;28;20209;-87
2023/11/18 00:33:56;;;;;;;9.70;8.68;;;;;;;5.89;100.00;102310.94;4996628;28;20039;-87
2023/11/18 00:36:21;;;;;;;10.25;9.15;;;;;;;5.88;100.00;102304.03;4997050;28;20097;-87
2023/11/18 00:38:47;;;;;;;13.80;9.35;;;;;;;5.85;100.00;102306.63;4996699;28;20061;-87
2023/11/18 00:41:12;;;;;;;10.00;8.82;;;;;;;5.83;100.00;102313.56;4979209;28;20101;-87
2023/11/18 00:43:38;;;;;;;15.30;9.15;;;;;;;5.82;100.00;102311.84;4994655;28;20026;-87
2023/11/18 00:46:05;;;;;;;11.27;9.10;;;;;;;5.80;100.00;102316.13;4979096;28;20058;-87
2023/11/18 00:48:30;;;;;;;10.35;9.25;;;;;;;5.79;100.00;102309.22;4996222;28;20332;-87
2023/11/18 00:50:56;;;;;;;17.35;9.55;;;;;;;5.78;100.00;102304.88;4996590;28;20069;-87
2023/11/18 00:53:22;;;;;;;11.00;9.05;;;;;;;5.80;100.00;102310.06;4996511;28;20106;-87
2023/11/18 00:55:47;;;;;;;17.17;10.15;;;;;;;5.81;100.00;102315.28;4996023;28;20034;-87
2023/11/18 00:58:13;;;;;;;14.48;9.50;;;;;;;5.83;100.00;102305.75;4996199;28;20109;-87
2023/11/18 01:00:38;;;;;;;13.98;10.02;;;;;;;5.86;100.00;102305.78;4993813;28;20105;-87
2023/11/18 01:03:04;;;;;;;14.68;10.07;;;;;;;5.87;100.00;102319.63;4996686;28;20037;-87
2023/11/18 01:05:31;;;;;;;14.27;9.73;;;;;;;5.89;100.00;102310.09;4977990;28;20333;-87
2023/11/18 01:07:57;;;;;;;14.10;10.30;;;;;;;5.92;100.00;102321.38;4995997;28;20073;-87
2023/11/18 01:10:23;;;;;;;14.50;9.27;;;;;;;5.94;100.00;102316.19;4996329;28;20070;-87
2023/11/18 01:12:48;;;;;;;12.68;9.82;;;;;;;5.95;100.00;102316.22;4977846;28;20384;-87
2023/11/18 01:15:14;;;;;;;11.18;9.65;;;;;;;5.97;100.00;102313.63;4978577;28;20049;-87
2023/11/18 01:17:40;;;;;;;13.10;8.73;;;;;;;5.98;100.00;102315.34;4995811;28;20038;-87
2023/11/18 01:20:10;;;;;;;11.85;9.27;;;;;;;6.00;100.00;102317.97;4995989;28;20329;-87
2023/11/18 01:22:37;;;;;;;16.95;10.00;;;;;;;6.01;100.00;102317.09;4995754;28;20301;-87
2023/11/18 01:25:04;;;;;;;10.95;9.05;;;;;;;6.03;100.00;102312.75;4996126;28;20069;-87
2023/11/18 01:27:29;;;;;;;12.70;9.68;;;;;;;6.03;100.00;102315.38;4995570;28;20356;-87
2023/11/18 01:29:55;;;;;;;11.32;9.20;;;;;;;6.05;100.00;102319.69;4978022;28;20060;-87
2023/11/18 01:32:20;;;;;;;11.18;9.75;;;;;;;6.05;100.00;102327.50;4996277;28;20128;-87
2023/11/18 01:34:50;;;;;;;10.10;9.07;;;;;;;6.05;100.00;102331.84;4995399;28;20399;-87
2023/11/18 01:37:16;;;;;;;15.43;9.43;;;;;;;6.06;100.00;102329.25;4978182;28;20087;-87
2023/11/18 01:39:41;;;;;;;12.57;9.38;;;;;;;6.07;100.00;102330.97;5006310;28;20277;-87
2023/11/18 01:42:06;;;;;;;10.10;8.98;;;;;;;6.07;100.00;102328.38;5035213;28;20037;-87
2023/11/18 01:44:33;;;;;;;11.00;9.20;;;;;;;6.08;100.00;102330.13;5034475;28;20555;-87
2023/11/18 01:46:59;;;;;;;10.55;8.85;;;;;;;6.08;100.00;102337.91;5034918;28;20092;-88
2023/11/18 01:49:27;;;;;;;10.48;9.07;;;;;;;6.09;100.00;102337.06;5035234;28;20025;-87
2023/11/18 01:51:53;;;;;;;16.80;9.70;;;;;;;6.09;100.00;102339.66;5016888;28;20029;-87
2023/11/18 01:54:19;;;;;;;13.73;9.40;;;;;;;6.09;100.00;102342.28;5034696;28;20083;-87
2023/11/18 01:56:47;;;;;;;13.57;9.55;;;;;;;6.11;100.00;102332.72;5034405;28;20125;-87
2023/11/18 01:59:18;;;;;;;11.52;9.55;;;;;;;6.14;100.00;102331.84;5034591;28;20048;-87
2023/11/18 02:01:47;;;;;;;15.70;9.93;;;;;;;6.14;100.00;102327.50;5034464;28;20148;-87
2023/11/18 02:04:13;;;;;;;13.05;10.27;;;;;;;6.17;100.00;102336.19;5034685;28;20029;-87
2023/11/18 02:06:39;;;;;;;11.75;9.95;;;;;;;6.17;100.00;102321.47;5034063;28;20056;-87
2023/11/18 02:09:05;;;;;;;11.15;9.57;;;;;;;6.15;100.00;102333.59;5023591;28;20076;-87
2023/11/18 02:11:45;;;;;;;14.75;9.65;;;;;;;6.17;100.00;102329.28;5033873;28;20299;-87
2023/11/18 02:14:16;;;;;;;12.15;9.70;;;;;;;6.18;100.00;102327.53;5034677;28;20038;-87
2023/11/18 02:16:43;;;;;;;13.38;10.93;;;;;;;6.17;100.00;102330.97;5034298;28;20036;-87
2023/11/18 02:19:20;;;;;;;15.30;10.82;;;;;;;6.17;100.00;102331.88;5034549;28;20041;-87
2023/11/18 02:21:47;;;;;;;17.38;9.75;;;;;;;6.17;100.00;102325.78;5034076;28;20411;-87
2023/11/18 02:24:25;;;;;;;15.98;11.40;;;;;;;6.16;100.00;102327.53;5034858;28;20251;-87
2023/11/18 02:26:50;;;;;;;13.70;10.65;;;;;;;6.14;100.00;102314.50;5033883;28;20026;-87
2023/11/18 02:29:15;;;;;;;14.38;11.40;;;;;;;6.15;100.00;102316.25;5033295;28;20030;-87
2023/11/18 02:31:42;;;;;;;15.18;10.52;;;;;;;6.19;100.00;102308.47;5034012;28;20109;-87
2023/11/18 02:34:16;;;;;;;17.75;11.82;;;;;;;6.18;100.00;102299.78;5034616;28;20087;-87
2023/11/18 02:36:46;;;;;;;14.88;11.10;;;;;;;6.18;100.00;102297.16;5034180;28;20410;-87
2023/11/18 02:39:17;;;;;;;13.27;10.68;;;;;;;6.19;100.00;102296.31;5033206;28;20301;-87
2023/11/18 02:41:48;;;;;;;16.13;11.38;;;;;;;6.22;100.00;102295.44;5032606;28;20039;-87
2023/11/18 02:44:17;;;;;;;25.15;12.15;;;;;;;6.18;100.00;102294.56;5034045;28;20038;-87
2023/11/18 02:46:43;;;;;;;14.93;11.27;;;;;;;6.22;100.00;102300.63;5032182;28;20044;-87
2023/11/18 02:49:09;;;;;;;18.45;10.57;;;;;;;6.22;100.00;102298.03;5033058;28;20037;-87
2023/11/18 02:51:39;;;;;;;15.20;10.48;;;;;;;6.24;100.00;102288.50;5033800;28;20336;-87
2023/11/18 02:54:10;;;;;;;12.27;9.88;;;;;;;6.25;100.00;102282.44;5034071;28;20317;-87
2023/11/18 02:56:38;;;;;;;12.85;10.55;;;;;;;6.23;100.00;102272.03;5033789;28;20060;-87
2023/11/18 02:59:07;;;;;;;17.48;10.95;;;;;;;6.25;100.00;102277.25;5033955;28;20029;-87
2023/11/18 03:01:33;;;;;;;11.52;9.73;;;;;;;6.26;100.00;102290.25;5033567;28;20037;-87
2023/11/18 03:03:59;;;;;;;11.45;9.40;;;;;;;6.28;100.00;102278.09;5032749;28;20031;-87
2023/11/18 03:06:25;;;;;;;13.00;9.15;;;;;;;6.30;100.00;102276.38;5034082;28;20057;-87
2023/11/18 03:08:51;;;;;;;12.07;9.85;;;;;;;6.29;100.00;102272.06;5024983;28;20057;-87
2023/11/18 03:11:17;;;;;;;12.50;9.80;;;;;;;6.29;100.00;102279.84;5014227;28;20034;-87
2023/11/18 03:13:42;;;;;;;11.30;10.15;;;;;;;6.28;100.00;102272.03;4995558;28;20042;-87
2023/11/18 03:16:11;;;;;;;13.55;9.68;;;;;;;6.28;100.00;102265.09;5014372;28;20092;-87
2023/11/18 03:18:41;;;;;;;12.75;10.45;;;;;;;6.28;100.00;102261.63;5013685;28;20487;-87
2023/11/18 03:21:12;;;;;;;13.55;9.30;;;;;;;6.28;100.00;102262.50;5014883;28;20037;-87
2023/11/18 03:23:38;;;;;;;13.00;9.63;;;;;;;6.30;100.00;102259.91;5017152;28;20029;-87
2023/11/18 03:26:05;;;;;;;15.18;10.52;;;;;;;6.24;100.00;102245.16;5001703;28;20121;-87
2023/11/18 03:28:31;;;;;;;13.68;10.48;;;;;;;6.25;100.00;102244.28;5018536;28;20240;-87
2023/11/18 03:30:57;;;;;;;13.95;9.85;;;;;;;6.26;100.00;102227.81;5019216;28;20029;-87
2023/11/18 03:33:22;;;;;;;13.25;9.27;;;;;;;6.27;100.00;102226.94;5001390;28;20034;-87
2023/11/18 03:35:48;;;;;;;12.90;9.45;;;;;;;6.28;100.00;102225.22;5000644;28;20107;-87
2023/11/18 03:38:13;;;;;;;13.48;9.32;;;;;;;6.29;100.00;102222.63;5019135;28;20371;-87
2023/11/18 03:40:41;;;;;;;10.70;9.63;;;;;;;6.28;100.00;102209.59;5000641;28;20030;-87
2023/11/18 03:43:07;;;;;;;17.70;10.27;;;;;;;6.24;100.00;102206.13;5017590;28;20037;-87
2023/11/18 03:45:32;;;;;;;13.60;9.45;;;;;;;6.25;100.00;102199.19;5017686;28;20038;-87
2023/11/18 03:47:59;;;;;;;15.98;9.88;;;;;;;6.23;100.00;102200.94;5017620;28;20037;-87
2023/11/18 03:50:24;;;;;;;15.18;10.98;;;;;;;6.22;100.00;102210.47;4999467;28;20033;-87
2023/11/18 03:52:50;;;;;;;14.30;9.75;;;;;;;6.22;100.00;102215.69;5016677;28;20336;-87
2023/11/18 03:55:15;;;;;;;14.95;10.52;;;;;;;6.23;100.00;102213.94;5017356;28;20083;-87
2023/11/18 03:57:40;;;;;;;12.38;10.60;;;;;;;6.23;100.00;102200.94;4998911;28;20136;-87
2023/11/18 04:00:06;;;;;;;17.02;11.13;;;;;;;6.25;100.00;102194.84;5016962;28;20236;-87
2023/11/18 04:02:34;;;;;;;21.02;11.77;;;;;;;6.19;100.00;102189.66;5016727;28;20332;-87
2023/11/18 04:04:59;;;;;;;14.50;10.88;;;;;;;6.21;100.00;102184.47;5016858;28;20149;-87
2023/11/18 04:07:25;;;;;;;18.02;10.73;;;;;;;6.22;100.00;102179.25;5017090;28;20256;-87
2023/11/18 04:09:50;;;;;;;18.15;12.00;;;;;;;6.24;100.00;102168.81;5014712;28;20144;-87
2023/11/18 04:12:16;;;;;;;18.63;10.65;;;;;;;6.24;100.00;102166.22;5019212;28;20232;-87
2023/11/18 04:14:41;;;;;;;13.27;10.32;;;;;;;6.25;100.00;102160.16;5035963;28;20091;-87
2023/11/18 04:17:06;;;;;;;16.50;12.02;;;;;;;6.24;100.00;102159.31;5036689;28;20033;-87
2023/11/18 04:19:32;;;;;;;15.57;10.98;;;;;;;6.28;100.00;102157.56;5035961;28;20409;-87
2023/11/18 04:21:57;;;;;;;13.10;10.27;;;;;;;6.30;100.00;102153.22;5018766;28;20022;-87
2023/11/18 04:24:22;;;;;;;17.42;11.85;;;;;;;6.31;100.00;102148.03;5036462;28;20025;-87
2023/11/18 04:26:49;;;;;;;15.85;10.50;;;;;;;6.32;100.00;102146.28;5035881;28;20045;-88
2023/11/18 04:29:14;;;;;;;19.63;12.57;;;;;;;6.30;100.00;102161.88;5018602;28;20040;-88
2023/11/18 04:31:40;;;;;;;16.77;11.02;;;;;;;6.29;100.00;102147.16;5035986;28;20128;-87
2023/11/18 04:34:05;;;;;;;13.70;11.00;;;;;;;6.31;100.00;102144.53;5017661;28;20104;-88
2023/11/18 04:36:31;;;;;;;14.52;10.90;;;;;;;6.33;100.00;102151.47;5035501;28;20217;-87
2023/11/18 04:38:56;;;;;;;10.60;9.15;;;;;;;6.35;100.00;102143.69;5018745;28;20029;-87
2023/11/18 04:41:22;;;;;;;20.77;12.43;;;;;;;6.34;100.00;102141.94;5018109;28;20063;-87
2023/11/18 04:43:48;;;;;;;17.85;11.80;;;;;;;6.31;100.00;102140.22;5035536;28;20309;-87
2023/11/18 04:46:13;;;;;;;15.75;10.88;;;;;;;6.33;100.00;102143.69;5036045;28;20097;-87
2023/11/18 04:48:39;;;;;;;14.43;10.88;;;;;;;6.34;100.00;102129.78;5035702;28;20360;-87
2023/11/18 04:51:05;;;;;;;17.20;10.95;;;;;;;6.32;100.00;102139.31;5036385;28;20033;-87
2023/11/18 04:53:31;;;;;;;16.67;11.30;;;;;;;6.31;100.00;102129.81;5035459;28;20440;-87
2023/11/18 04:55:58;;;;;;;17.20;11.32;;;;;;;6.33;100.00;102125.47;5036190;28;20040;-87
2023/11/18 04:58:23;;;;;;;20.45;10.93;;;;;;;6.29;100.00;102110.75;5035843;28;20075;-87
2023/11/18 05:00:50;;;;;;;18.13;11.25;;;;;;;6.29;100.00;102107.25;5017298;28;20060;-87
2023/11/18 05:03:16;;;;;;;16.35;11.23;;;;;;;6.26;100.00;102108.13;5036006;28;20021;-87
2023/11/18 05:05:42;;;;;;;21.25;11.95;;;;;;;6.27;100.00;102104.63;5035549;28;20064;-88
2023/11/18 05:08:08;;;;;;;20.35;11.32;;;;;;;6.28;100.00;102102.94;5035602;28;20355;-87
2023/11/18 05:10:38;;;;;;;18.95;11.60;;;;;;;6.27;100.00;102096.84;5035214;28;20037;-87
2023/11/18 05:13:03;;;;;;;16.02;11.68;;;;;;;6.25;100.00;102098.59;5035712;28;20043;-87
2023/11/18 05:15:30;;;;;;;18.08;10.90;;;;;;;6.28;100.00;102095.13;5035239;28;20045;-87
2023/11/18 05:17:55;;;;;;;16.15;11.25;;;;;;;6.29;100.00;102097.72;5017803;28;20080;-88
2023/11/18 05:20:21;;;;;;;20.30;11.50;;;;;;;6.27;100.00;102096.84;5017817;28;20025;-87
2023/11/18 05:22:47;;;;;;;15.48;11.02;;;;;;;6.29;100.00;102086.44;5035202;28;20041;-87
2023/11/18 05:25:13;;;;;;;19.67;11.85;;;;;;;6.29;100.00;102091.63;5035778;28;20339;-87
2023/11/18 05:27:43;;;;;;;16.05;10.90;;;;;;;6.28;100.00;102088.19;5035463;28;20072;-87
2023/11/18 05:30:10;;;;;;;15.95;11.27;;;;;;;6.28;100.00;102082.97;5035302;28;20091;-87
2023/11/18 05:32:36;;;;;;;20.85;11.30;;;;;;;6.28;100.00;102074.31;5034662;28;20133;-87
2023/11/18 05:35:04;;;;;;;17.27;11.18;;;;;;;6.26;100.00;102071.72;5017170;28;20260;-87
2023/11/18 05:37:34;;;;;;;14.00;10.68;;;;;;;6.27;100.00;102064.75;5034791;28;20037;-87
2023/11/18 05:40:05;;;;;;;18.48;10.48;;;;;;;6.28;100.00;102074.31;5035137;28;20091;-88
2023/11/18 05:42:31;;;;;;;14.13;10.68;;;;;;;6.27;100.00;102070.81;5034655;28;20029;-87
2023/11/18 05:44:59;;;;;;;16.20;10.23;;;;;;;6.29;100.00;102058.69;5034815;28;20254;-87
2023/11/18 05:47:26;;;;;;;16.23;10.32;;;;;;;6.27;100.00;102050.00;5034477;28;20096;-87
2023/11/18 05:49:52;;;;;;;23.48;10.85;;;;;;;6.25;100.00;102037.88;5034823;28;20041;-87
2023/11/18 05:52:20;;;;;;;21.90;12.05;;;;;;;6.24;100.00;102031.81;5034907;28;20037;-87
2023/11/18 05:54:47;;;;;;;18.90;10.90;;;;;;;6.26;100.00;102035.28;5034469;28;20327;-87
2023/11/18 05:57:13;;;;;;;19.80;10.85;;;;;;;6.25;100.00;102043.09;5017068;28;20094;-87
2023/11/18 05:59:38;;;;;;;12.35;10.13;;;;;;;6.27;100.00;102054.34;5016668;28;20037;-87
2023/11/18 06:02:03;;;;;;;14.82;10.48;;;;;;;6.24;100.00;102046.56;5017142;28;20036;-87
2023/11/18 06:04:29;;;;;;;16.42;10.48;;;;;;;6.27;100.00;102044.81;5034515;28;20033;-87
2023/11/18 06:06:55;;;;;;;21.70;11.57;;;;;;;6.29;100.00;102039.59;5034789;28;20328;-87
2023/11/18 06:09:25;;;;;;;15.30;9.40;;;;;;;6.30;100.00;102029.19;5034706;28;20053;-87
2023/11/18 06:11:53;;;;;;;16.55;9.80;;;;;;;6.32;100.00;102027.44;5034265;28;20025;-87
2023/11/18 06:14:19;;;;;;;17.45;10.52;;;;;;;6.32;100.00;102026.59;5034505;28;20104;-87
2023/11/18 06:16:44;;;;;;;12.98;9.02;;;;;;;6.35;100.00;102029.19;5032740;28;20033;-87
2023/11/18 06:19:10;;;;;;;16.42;10.57;;;;;;;6.33;100.00;102030.91;5017006;28;20025;-87
2023/11/18 06:21:36;;;;;;;13.77;8.93;;;;;;;6.34;100.00;102033.50;5034104;28;20033;-87
2023/11/18 06:24:05;;;;;;;18.85;10.07;;;;;;;6.35;100.00;102039.59;5034988;28;20308;-87
2023/11/18 06:26:31;;;;;;;14.90;9.10;;;;;;;6.35;100.00;102021.38;5034284;28;20033;-87
2023/11/18 06:28:57;;;;;;;16.85;9.63;;;;;;;6.32;100.00;102019.63;5034270;28;20359;-87
2023/11/18 06:31:26;;;;;;;15.88;9.85;;;;;;;6.31;100.00;102024.84;5016692;28;20033;-87
2023/11/18 06:33:52;;;;;;;16.23;9.85;;;;;;;6.32;100.00;102026.59;5033851;28;20033;-87
2023/11/18 06:36:19;;;;;;;15.88;10.45;;;;;;;6.32;100.00;102016.19;5034687;28;20274;-87
2023/11/18 06:38:45;;;;;;;13.55;9.52;;;;;;;6.32;100.00;102014.44;5033994;28;20033;-87
2023/11/18 06:41:13;;;;;;;18.67;9.35;;;;;;;6.31;100.00;102015.31;5034591;28;20037;-87
2023/11/18 06:46:22;;;;;;;16.67;9.77;;;;;;;6.32;100.00;102018.78;5034509;28;20051;-87
2023/11/18 06:48:54;;;;;;;15.48;9.50;;;;;;;6.33;100.00;102012.69;5033719;28;20060;-87
2023/11/18 06:51:25;;;;;;;11.35;8.05;;;;;;;6.34;100.00;102017.03;5034543;28;20332;-87
2023/11/18 06:53:56;;;;;;;21.23;9.70;;;;;;;6.34;100.00;102020.50;5033674;28;20228;-87
2023/11/18 06:56:26;;;;;;;17.50;8.57;;;;;;;6.34;100.00;102017.03;5034128;28;20277;-87
2023/11/18 06:58:52;;;;;;;13.13;7.95;;;;;;;6.36;100.00;102015.28;5036174;28;20029;-87
2023/11/18 07:01:18;;;;;;;19.15;9.07;;;;;;;6.30;100.00;102010.97;5020371;28;20105;-87
2023/11/18 07:03:45;;;;;;;14.02;8.35;;;;;;;6.32;100.00;102021.38;5037812;28;20099;-87
2023/11/18 07:06:10;;;;;;;18.00;8.48;;;;;;;6.33;100.00;102016.19;5037938;28;20029;-87
2023/11/18 07:08:36;;;;;;;17.92;8.50;;;;;;;6.29;100.00;102004.06;5037462;28;20049;-87
2023/11/18 07:11:02;;;;;;;19.50;8.93;;;;;;;6.33;100.00;102017.91;5038118;28;20037;-87
2023/11/18 07:13:28;;;;;;;20.67;8.40;;;;;;;6.30;100.00;102024.00;5037341;28;20240;-86
2023/11/18 07:15:56;;;;;;;21.08;8.95;;;;;;;6.33;100.00;102029.19;5037815;28;20095;-87
2023/11/18 07:18:22;;;;;;;13.68;7.63;;;;;;;6.36;100.00;102027.44;5019925;28;20387;-87
2023/11/18 07:20:49;;;;;;;14.73;7.90;;;;;;;6.38;100.00;102023.94;5037340;28;20037;-87
2023/11/18 07:23:14;;;;;;;11.27;7.35;;;;;;;6.41;100.00;102036.09;5037860;28;20041;-87
2023/11/18 07:25:40;;;;;;;19.67;8.98;;;;;;;6.39;100.00;102030.91;5019481;28;20211;-87
2023/11/18 07:28:08;;;;;;;16.98;8.45;;;;;;;6.38;100.00;102028.28;5023590;28;20041;-87
2023/11/18 07:30:35;;;;;;;17.98;8.75;;;;;;;6.40;100.00;102035.22;4999177;28;20355;-87
2023/11/18 07:33:01;;;;;;;16.67;7.05;;;;;;;6.41;100.00;102028.28;5015528;28;20038;-87
2023/11/18 07:35:26;;;;;;;10.93;7.60;;;;;;;6.43;100.00;102027.41;5003830;28;20057;-87
2023/11/18 07:37:53;;;;;;;15.52;7.50;;;;;;;6.38;100.00;102026.56;4996155;28;20034;-87
2023/11/18 07:40:27;;;;;;;12.18;7.50;;;;;;;6.40;100.00;102011.78;4996183;28;20101;-87
2023/11/18 07:42:56;;;;;;;11.18;7.15;;;;;;;6.43;100.00;102017.00;4995985;28;20356;-87
2023/11/18 07:45:23;;;;;;;19.38;7.75;;;;;;;6.39;100.00;101999.69;4978107;28;20038;-87
2023/11/18 07:47:50;;;;;;;17.40;7.43;;;;;;;6.40;100.00;102006.59;4995479;28;20738;-88
2023/11/18 07:50:20;;;;;;;18.10;7.53;;;;;;;6.34;100.00;101997.06;5012840;28;20034;-88
2023/11/18 07:52:48;;;;;;;13.48;6.90;;;;;;;6.38;100.00;101994.47;5012837;28;20618;-87
2023/11/18 07:55:14;;;;;;;10.60;6.82;;;;;;;6.37;100.00;101985.81;5012317;28;20206;-87
2023/11/18 07:57:40;;;;;;;12.15;6.03;;;;;;;6.40;100.00;101984.91;4996104;28;20064;-88
2023/11/18 08:00:09;;;;;;;15.25;6.57;;;;;;;6.40;100.00;101990.13;5014853;28;20225;-87
2023/11/18 08:02:37;;;;;;;23.35;7.22;;;;;;;6.41;100.00;101978.84;5013900;28;20356;-88
2023/11/18 08:05:15;;;;;;;12.82;6.82;;;;;;;6.40;100.00;101988.38;5013112;28;20331;-88
2023/11/18 08:07:46;;;;;;;14.50;6.82;;;;;;;6.43;100.00;101987.50;5012486;28;20069;-87
2023/11/18 08:10:18;;;;;;;10.32;5.50;;;;;;;6.45;100.00;101994.44;4996693;28;20485;-88
2023/11/18 08:12:44;;;;;;;9.90;5.95;;;;;;;6.48;100.00;101991.81;4994616;28;20089;-88
2023/11/18 08:15:10;;;;;;;12.70;6.30;;;;;;;6.46;100.00;101990.13;4994998;28;20030;-88
2023/11/18 08:17:36;;;;;;;14.45;6.40;;;;;;;6.51;100.00;101983.13;4994462;28;20348;-87
2023/11/18 08:20:08;;;;;;;12.02;6.70;;;;;;;6.51;100.00;101975.31;4995889;28;20069;-87
2023/11/18 08:22:38;;;;;;;13.13;6.13;;;;;;;6.51;100.00;101976.19;4994895;28;20236;-87
2023/11/18 08:25:08;;;;;;;10.48;5.78;;;;;;;6.49;100.00;101977.06;4977531;28;20053;-87
2023/11/18 08:27:33;;;;;;;16.00;6.78;;;;;;;6.49;100.00;101983.16;4994560;28;20269;-87
2023/11/18 08:29:59;;;;;;;13.25;6.20;;;;;;;6.49;100.00;101984.88;4977173;28;20073;-87
2023/11/18 08:32:24;;;;;;;13.07;5.95;;;;;;;6.49;100.00;101975.34;4995211;28;20065;-87
2023/11/18 08:34:51;;;;;;;16.30;6.07;;;;;;;6.46;100.00;101959.75;4976683;28;20157;-86
2023/11/18 08:37:16;;;;;;;14.98;6.40;;;;;;;6.49;100.00;101956.25;4995097;28;20086;-87
2023/11/18 08:39:42;;;;;;;11.13;5.90;;;;;;;6.48;100.00;101946.72;4994670;28;20042;-87
2023/11/18 08:42:07;;;;;;;18.73;7.20;;;;;;;6.46;100.00;101938.06;4995290;28;20042;-87
2023/11/18 08:44:33;;;;;;;18.98;7.18;;;;;;;6.45;100.00;101941.53;4994309;28;20076;-87
2023/11/18 08:46:58;;;;;;;16.42;7.28;;;;;;;6.40;100.00;101928.53;4995423;28;20034;-87
2023/11/18 08:49:25;;;;;;;12.80;6.38;;;;;;;6.39;100.00;101919.00;4995185;28;20107;-87
2023/11/18 08:52:01;;;;;;;12.73;6.13;;;;;;;6.42;100.00;101926.81;4994410;28;20338;-87
2023/11/18 08:54:36;;;;;;;17.52;6.80;;;;;;;6.43;100.00;101914.66;4994627;28;20045;-87
2023/11/18 08:57:19;;;;;;;12.80;6.28;;;;;;;6.42;100.00;101912.91;4995212;28;20227;-87
2023/11/18 08:59:44;;;;;;;14.00;6.13;;;;;;;6.40;100.00;101907.72;4994375;28;20328;-87
2023/11/18 09:02:14;;;;;;;17.02;6.20;;;;;;;6.36;100.00;101892.13;4994890;28;20041;-87
2023/11/18 09:04:42;;;;;;;14.82;6.65;;;;;;;6.38;100.00;101887.78;4994104;28;20038;-87
2023/11/18 09:07:09;;;;;;;14.52;6.00;;;;;;;6.43;100.00;101886.03;4994861;28;20235;-87
2023/11/18 09:09:35;;;;;;;17.58;7.53;;;;;;;6.47;100.00;101887.72;4988346;28;20411;-87
2023/11/18 09:12:02;;;;;;;11.15;6.18;;;;;;;6.48;100.00;101872.09;5014304;28;20049;-87
2023/11/18 09:14:28;;;;;;;12.15;6.32;;;;;;;6.53;100.00;101856.44;5013444;28;20304;-87
2023/11/18 09:16:58;;;;;;;15.13;6.75;;;;;;;6.56;100.00;101855.56;5013945;28;20030;-87
2023/11/18 09:19:24;;;;;;;14.80;6.20;;;;;;;6.58;100.00;101861.63;5013856;28;20033;-87
2023/11/18 09:21:51;;;;;;;16.13;5.57;;;;;;;6.63;100.00;101860.72;5012548;28;20057;-87
2023/11/18 09:24:19;;;;;;;11.18;5.82;;;;;;;6.58;100.00;101843.41;5013991;28;20364;-87
2023/11/18 09:26:47;;;;;;;12.38;6.25;;;;;;;6.58;100.00;101840.81;5013304;28;20033;-87
2023/11/18 09:29:17;;;;;;;16.20;6.38;;;;;;;6.54;100.00;101842.56;5013757;28;20218;-87
2023/11/18 09:31:47;;;;;;;12.07;6.95;;;;;;;6.56;100.00;101830.41;5013338;28;20080;-87
2023/11/18 09:34:16;;;;;;;13.80;5.13;;;;;;;6.58;100.00;101813.03;4995535;28;20060;-87
2023/11/18 09:36:45;;;;;;;9.65;5.00;;;;;;;6.64;100.00;101827.72;4995742;28;20034;-87
2023/11/18 09:39:28;;;;;;;12.70;5.30;;;;;;;6.61;100.00;101833.84;4995827;28;20030;-87
2023/11/18 09:41:57;;;;;;;6.93;4.82;;;;;;;6.66;100.00;101836.41;5013759;28;20026;-87
2023/11/18 09:44:26;;;;;;;10.95;5.68;;;;;;;6.68;100.00;101825.09;5013265;28;20041;-88
2023/11/18 09:47:04;;;;;;;6.85;4.55;;;;;;;6.73;100.00;101823.31;4995120;28;20029;-86
2023/11/18 09:49:38;;;;;;;12.98;5.43;;;;;;;6.74;100.00;101816.38;5011729;28;20338;-87
2023/11/18 09:52:06;;;;;;;11.73;4.93;;;;;;;6.76;100.00;101818.97;4996637;28;20229;-87
2023/11/18 09:54:44;;;;;;;12.30;5.03;;;;;;;6.78;100.00;101814.59;5012873;28;20033;-87
2023/11/18 09:57:26;;;;;;;13.57;5.10;;;;;;;6.76;100.00;101805.94;5014500;28;20042;-87
2023/11/18 10:02:50;;;;;;;12.52;4.72;;;;;;;6.79;100.00;101787.69;5014195;28;20048;-87
2023/11/18 10:05:20;;;;;;;12.27;4.18;;;;;;;6.79;100.00;101803.31;4997497;28;20236;-87
2023/11/18 10:07:47;;;;;;;9.52;4.57;;;;;;;6.82;100.00;101808.47;5014296;28;20332;-87
2023/11/18 10:10:16;;;;;;;12.10;4.90;;;;;;;6.81;100.00;101786.78;5014353;28;20299;-87
2023/11/18 10:12:51;;;;;;;13.55;4.38;;;;;;;6.82;100.00;101804.16;5013905;28;20038;-87
2023/11/18 10:15:18;;;;;;;8.85;4.43;;;;;;;6.82;100.00;101818.88;5013995;28;20033;-87
2023/11/18 10:17:59;;;;;;;8.85;4.25;;;;;;;6.83;100.00;101811.06;4996441;28;20058;-87
2023/11/18 10:20:47;;;;;;;8.02;4.35;;;;;;;6.85;100.00;101792.84;5014517;28;20045;-87
2023/11/18 10:23:20;;;;;;;6.10;3.78;;;;;;;6.88;100.00;101777.19;5014250;28;20025;-87
2023/11/18 10:25:47;;;;;;;5.95;3.38;;;;;;;6.92;100.00;101761.50;5013544;28;20108;-87
2023/11/18 10:28:27;;;;;;;11.25;4.50;;;;;;;6.95;100.00;101749.31;5014592;28;20034;-87
2023/11/18 10:30:53;;;;;;;5.03;4.53;;;;;;;6.92;100.00;101752.84;5013979;28;20364;-87
2023/11/18 10:33:19;;;;;;;6.57;4.13;;;;;;;6.90;100.00;101763.25;4973426;28;20046;-87
2023/11/18 10:35:51;;;;;;;8.75;3.80;;;;;;;6.90;100.00;101757.19;4973218;28;20516;-88
2023/11/18 10:38:18;;;;;;;6.60;4.07;;;;;;;6.91;100.00;101766.72;4973732;28;20221;-87
2023/11/18 10:40:43;;;;;;;7.40;4.00;;;;;;;6.91;100.00;101767.59;4955470;28;20035;-87
2023/11/18 10:43:12;;;;;;;8.15;4.15;;;;;;;6.92;100.00;101765.84;4973547;28;20058;-87
2023/11/18 10:45:40;;;;;;;13.30;3.70;;;;;;;6.95;100.00;101755.41;4972843;28;20281;-87
2023/11/18 10:48:06;;;;;;;7.22;3.42;;;;;;;6.97;100.00;101734.53;4972565;28;20026;-87
2023/11/18 10:50:32;;;;;;;10.05;4.30;;;;;;;6.95;100.00;101712.84;4971665;28;20030;-87
2023/11/18 10:53:03;;;;;;;7.35;3.53;;;;;;;6.99;100.00;101702.41;4972076;28;20058;-87
2023/11/18 10:55:40;;;;;;;8.00;4.05;;;;;;;7.01;100.00;101661.56;4984218;28;20030;-87
2023/11/18 10:58:07;;;;;;;9.85;3.88;;;;;;;7.03;100.00;101662.41;4988435;28;20069;-87
2023/11/18 11:00:55;;;;;;;8.18;3.97;;;;;;;7.02;100.00;101628.56;4972648;28;20043;-87
2023/11/18 11:03:25;;;;;;;7.80;4.45;;;;;;;6.99;100.00;101620.81;4995420;28;20038;-87
2023/11/18 11:05:54;;;;;;;12.88;4.38;;;;;;;6.99;100.00;101621.66;4982787;28;20027;-87
2023/11/18 11:08:20;;;;;;;12.57;4.13;;;;;;;7.00;100.00;101618.16;5001465;28;20060;-87
2023/11/18 11:10:48;;;;;;;14.63;4.07;;;;;;;7.04;100.00;101606.84;5009531;28;20054;-87
2023/11/18 11:13:17;;;;;;;10.43;4.40;;;;;;;7.07;100.00;101605.94;5007275;28;20100;-87
2023/11/18 11:15:45;;;;;;;11.93;4.45;;;;;;;7.07;100.00;101601.56;5009038;28;20030;-87
2023/11/18 11:18:15;;;;;;;9.00;4.00;;;;;;;7.11;100.00;101587.66;5026459;28;20050;-87
2023/11/18 11:21:07;;;;;;;9.27;4.40;;;;;;;7.10;100.00;101570.28;5011036;28;20337;-87
2023/11/18 11:23:50;;;;;;;6.82;3.88;;;;;;;7.11;100.00;101568.53;5004858;28;20053;-87